createdAt,value
2022-11-05T00:03:01.814Z,10.57
2022-11-05T00:06:17.830Z,10.55
2022-11-05T00:09:20.269Z,10.51
2022-11-05T00:12:34.836Z,10.47
2022-11-05T00:15:50.815Z,10.43
2022-11-05T00:19:12.786Z,10.43
2022-11-05T00:22:20.800Z,10.40
2022-11-05T00:25:37.844Z,10.43
2022-11-05T00:28:52.795Z,10.37
2022-11-05T00:32:01.839Z,10.29
2022-11-05T00:35:16.810Z,10.21
2022-11-05T00:38:18.652Z,10.09
2022-11-05T00:41:33.808Z,9.99
2022-11-05T00:44:41.828Z,9.89
2022-11-05T00:47:50.382Z,9.84
2022-11-05T00:50:58.833Z,9.80
2022-11-05T00:54:13.797Z,9.72
2022-11-05T00:57:22.342Z,9.67
2022-11-05T01:00:32.826Z,9.60
2022-11-05T01:03:41.440Z,9.54
2022-11-05T01:06:55.831Z,9.50
2022-11-05T01:10:03.858Z,9.45
2022-11-05T01:13:14.309Z,9.44
2022-11-05T01:16:22.837Z,9.42
2022-11-05T01:19:44.800Z,9.43
2022-11-05T01:22:52.833Z,9.33
2022-11-05T01:26:07.806Z,9.37
2022-11-05T01:29:17.817Z,9.27
2022-11-05T01:32:32.809Z,9.27
2022-11-05T01:35:40.814Z,9.26
2022-11-05T01:38:55.822Z,9.23
2022-11-05T01:41:57.620Z,9.21
2022-11-05T01:45:27.800Z,9.18
2022-11-05T01:48:36.577Z,9.15
2022-11-05T01:51:45.802Z,9.21
2022-11-05T01:54:54.731Z,9.20
2022-11-05T01:58:05.811Z,9.21
2022-11-05T02:01:15.464Z,9.24
2022-11-05T02:04:39.808Z,9.24
2022-11-05T02:07:55.864Z,9.20
2022-11-05T02:10:58.341Z,9.15
2022-11-05T02:14:12.833Z,9.23
2022-11-05T02:18:05.827Z,9.21
2022-11-05T02:21:49.837Z,9.23
2022-11-05T02:25:33.643Z,9.15
2022-11-05T02:29:03.819Z,9.16
2022-11-05T02:32:27.260Z,9.16
2022-11-05T02:35:49.812Z,9.14
2022-11-05T02:39:24.804Z,9.09
2022-11-05T02:42:57.904Z,9.07
2022-11-05T02:46:20.856Z,9.05
2022-11-05T02:49:38.816Z,9.13
2022-11-05T02:53:18.809Z,9.15
2022-11-05T02:56:35.830Z,9.14
2022-11-05T02:59:44.374Z,9.15
2022-11-05T03:02:52.897Z,9.11
2022-11-05T03:06:18.446Z,9.08
2022-11-05T03:09:51.822Z,9.08
2022-11-05T03:13:23.832Z,9.08
2022-11-05T03:16:49.808Z,9.05
2022-11-05T03:20:33.176Z,9.00
2022-11-05T03:24:01.811Z,9.03
2022-11-05T03:27:09.699Z,9.02
2022-11-05T03:30:25.798Z,8.96
2022-11-05T03:33:37.816Z,8.99
2022-11-05T03:36:51.480Z,9.00
2022-11-05T03:40:04.823Z,9.01
2022-11-05T03:43:20.804Z,9.00
2022-11-05T03:46:42.822Z,8.97
2022-11-05T03:50:25.796Z,8.94
2022-11-05T03:53:43.519Z,8.91
2022-11-05T03:57:02.800Z,8.90
2022-11-05T04:00:14.116Z,8.93
2022-11-05T04:03:28.820Z,8.93
2022-11-05T04:06:37.354Z,8.95
2022-11-05T04:09:45.822Z,8.95
2022-11-05T04:12:54.332Z,8.96
2022-11-05T04:16:03.809Z,8.94
2022-11-05T04:19:23.684Z,8.89
2022-11-05T04:22:41.809Z,8.88
2022-11-05T04:25:56.825Z,8.82
2022-11-05T04:29:07.891Z,8.84
2022-11-05T04:32:16.294Z,8.81
2022-11-05T04:35:31.804Z,8.79
2022-11-05T04:38:33.669Z,8.76
2022-11-05T04:41:48.959Z,8.73
2022-11-05T04:45:10.808Z,8.70
2022-11-05T04:48:13.129Z,8.68
2022-11-05T04:51:27.833Z,8.69
2022-11-05T04:54:29.673Z,8.65
2022-11-05T04:57:44.819Z,8.64
2022-11-05T05:00:55.847Z,8.66
2022-11-05T05:04:04.584Z,8.66
2022-11-05T05:07:19.807Z,8.68
2022-11-05T05:10:34.822Z,8.67
2022-11-05T05:13:42.830Z,8.62
2022-11-05T05:16:51.344Z,8.66
2022-11-05T05:20:06.832Z,8.67
2022-11-05T05:23:21.824Z,8.63
2022-11-05T05:26:30.427Z,8.62
2022-11-05T05:29:44.843Z,8.60
2022-11-05T05:32:53.337Z,8.62
2022-11-05T05:36:11.345Z,8.59
2022-11-05T05:39:13.503Z,8.57
2022-11-05T05:42:27.804Z,8.53
2022-11-05T05:45:36.416Z,8.50
2022-11-05T05:48:55.833Z,8.53
2022-11-05T05:51:57.588Z,8.52
2022-11-05T05:55:12.828Z,8.48
2022-11-05T05:58:20.815Z,8.51
2022-11-05T06:01:35.989Z,8.51
2022-11-05T06:04:44.843Z,8.49
2022-11-05T06:07:58.007Z,8.51
2022-11-05T06:11:06.884Z,8.55
2022-11-05T06:14:15.560Z,8.56
2022-11-05T06:17:30.817Z,8.53
2022-11-05T06:20:38.807Z,8.56
2022-11-05T06:23:47.346Z,8.60
2022-11-05T06:27:01.801Z,8.63
2022-11-05T06:30:05.027Z,8.66
2022-11-05T06:33:19.807Z,8.62
2022-11-05T06:36:21.559Z,8.69
2022-11-05T06:39:36.800Z,8.71
2022-11-05T06:42:51.810Z,8.68
2022-11-05T06:46:02.295Z,8.74
2022-11-05T06:49:16.836Z,8.77
2022-11-05T06:52:18.820Z,8.85
2022-11-05T06:55:35.862Z,8.90
2022-11-05T06:58:44.437Z,8.94
2022-11-05T07:01:59.908Z,8.93
2022-11-05T07:05:09.051Z,8.96
2022-11-05T07:08:17.824Z,8.95
2022-11-05T07:11:26.396Z,9.01
2022-11-05T07:14:40.851Z,9.06
2022-11-05T07:17:48.796Z,9.06
2022-11-05T07:21:05.809Z,9.11
2022-11-05T07:24:14.647Z,9.13
2022-11-05T07:27:23.847Z,9.16
2022-11-05T07:30:33.917Z,9.20
2022-11-05T07:33:41.805Z,9.24
2022-11-05T07:36:56.808Z,9.28
2022-11-05T07:40:04.818Z,9.33
2022-11-05T07:43:13.762Z,9.40
2022-11-05T07:46:21.851Z,9.43
2022-11-05T07:49:30.443Z,9.51
2022-11-05T07:52:44.815Z,9.55
2022-11-05T07:55:46.691Z,9.56
2022-11-05T07:59:01.817Z,9.56
2022-11-05T08:02:10.901Z,9.59
2022-11-05T08:05:19.824Z,9.57
2022-11-05T08:08:34.803Z,9.58
2022-11-05T08:11:36.657Z,9.58
2022-11-05T08:14:51.810Z,9.64
2022-11-05T08:18:08.815Z,9.62
2022-11-05T08:21:30.820Z,9.64
2022-11-05T08:24:45.835Z,9.59
2022-11-05T08:27:53.827Z,9.69
2022-11-05T08:31:08.842Z,9.74
2022-11-05T08:34:17.543Z,9.82
2022-11-05T08:37:32.791Z,9.86
2022-11-05T08:40:48.813Z,10.01
2022-11-05T08:43:57.354Z,10.11
2022-11-05T08:47:11.793Z,10.22
2022-11-05T08:50:15.798Z,10.26
2022-11-05T08:53:30.823Z,10.39
2022-11-05T08:56:46.782Z,10.49
2022-11-05T08:59:54.803Z,10.49
2022-11-05T09:03:16.816Z,10.55
2022-11-05T09:06:19.124Z,10.54
2022-11-05T09:09:33.819Z,10.50
2022-11-05T09:12:42.320Z,10.54
2022-11-05T09:15:50.820Z,10.55
2022-11-05T09:19:12.783Z,10.50
2022-11-05T09:22:27.809Z,10.52
2022-11-05T09:25:36.513Z,10.52
2022-11-05T09:28:50.831Z,10.52
2022-11-05T09:31:52.659Z,10.57
2022-11-05T09:35:07.819Z,10.63
2022-11-05T09:38:16.335Z,10.66
2022-11-05T09:41:36.814Z,10.76
2022-11-05T09:44:58.828Z,10.79
2022-11-05T09:48:15.804Z,11.00
2022-11-05T09:51:30.819Z,11.20
2022-11-05T09:54:39.651Z,11.28
2022-11-05T09:58:03.816Z,11.21
2022-11-05T10:01:13.294Z,11.23
2022-11-05T10:04:30.824Z,11.26
2022-11-05T10:07:47.851Z,11.35
2022-11-05T10:11:11.803Z,11.41
2022-11-05T10:14:25.809Z,11.46
2022-11-05T10:17:39.307Z,11.46
2022-11-05T10:20:53.805Z,11.41
2022-11-05T10:24:19.811Z,11.43
2022-11-05T10:27:39.800Z,11.46
2022-11-05T10:30:57.825Z,11.50
2022-11-05T10:34:08.439Z,11.48
2022-11-05T10:37:16.826Z,11.50
2022-11-05T10:40:34.326Z,11.55
2022-11-05T10:43:42.804Z,11.50
2022-11-05T10:47:11.803Z,11.49
2022-11-05T10:50:24.825Z,11.54
2022-11-05T10:53:42.799Z,11.57
2022-11-05T10:56:44.783Z,11.55
2022-11-05T10:59:59.829Z,11.56
2022-11-05T11:03:03.871Z,11.64
2022-11-05T11:06:23.821Z,11.77
2022-11-05T11:09:39.821Z,11.89
2022-11-05T11:12:50.414Z,11.88
2022-11-05T11:16:35.796Z,11.94
2022-11-05T11:19:37.578Z,12.00
2022-11-05T11:23:19.837Z,12.05
2022-11-05T11:26:29.802Z,12.06
2022-11-05T11:29:46.441Z,12.15
2022-11-05T11:33:11.014Z,12.37
2022-11-05T11:36:22.811Z,12.53
2022-11-05T11:39:32.353Z,12.52
2022-11-05T11:42:46.843Z,12.52
2022-11-05T11:46:03.788Z,12.61
2022-11-05T11:49:44.834Z,12.70
2022-11-05T11:52:59.825Z,12.66
2022-11-05T11:56:27.798Z,12.54
2022-11-05T12:03:25.962Z,12.48
2022-11-05T12:06:39.861Z,12.53
2022-11-05T12:10:09.823Z,12.50
2022-11-05T12:13:21.436Z,12.43
2022-11-05T12:16:50.821Z,12.48
2022-11-05T12:20:15.805Z,12.48
2022-11-05T12:23:39.954Z,12.39
2022-11-05T12:27:01.149Z,12.38
2022-11-05T12:30:22.904Z,12.34
2022-11-05T12:33:40.632Z,12.33
2022-11-05T12:37:23.238Z,12.40
2022-11-05T12:41:10.819Z,12.37
2022-11-05T12:44:53.848Z,12.35
2022-11-05T12:48:17.607Z,12.28
2022-11-05T12:51:32.834Z,12.23
2022-11-05T12:54:59.825Z,12.25
2022-11-05T12:58:18.678Z,12.23
2022-11-05T13:01:57.966Z,12.23
2022-11-05T13:05:36.877Z,12.19
2022-11-05T13:09:24.837Z,12.18
2022-11-05T13:12:38.130Z,12.15
2022-11-05T13:15:55.807Z,12.16
2022-11-05T13:19:20.311Z,12.19
2022-11-05T13:22:43.809Z,12.19
2022-11-05T13:26:19.353Z,12.20
2022-11-05T13:29:32.693Z,12.22
2022-11-05T13:32:54.056Z,12.23
2022-11-05T13:36:05.847Z,12.22
2022-11-05T13:39:39.826Z,12.19
2022-11-05T13:43:07.005Z,12.17
2022-11-05T13:46:51.108Z,12.15
2022-11-05T13:50:12.209Z,12.15
2022-11-05T13:53:45.837Z,12.18
2022-11-05T13:56:57.832Z,12.17
2022-11-05T14:00:22.178Z,12.19
2022-11-05T14:03:25.484Z,12.23
2022-11-05T14:06:42.826Z,12.23
2022-11-05T14:09:46.575Z,12.20
2022-11-05T14:13:04.800Z,12.15
2022-11-05T14:16:10.233Z,12.15
2022-11-05T14:19:24.829Z,12.13
2022-11-05T14:22:48.017Z,12.10
2022-11-05T14:26:07.808Z,12.08
2022-11-05T14:29:30.824Z,12.05
2022-11-05T14:32:46.612Z,12.04
2022-11-05T14:35:57.115Z,12.02
2022-11-05T14:39:31.827Z,11.99
2022-11-05T14:42:40.860Z,12.00
2022-11-05T14:46:05.821Z,11.96
2022-11-05T14:49:47.258Z,11.94
2022-11-05T14:53:07.802Z,11.92
2022-11-05T14:56:14.633Z,11.89
2022-11-05T14:59:30.817Z,11.88
2022-11-05T15:03:09.968Z,11.87
2022-11-05T15:06:33.814Z,11.84
2022-11-05T15:09:49.911Z,11.84
2022-11-05T15:13:12.038Z,11.82
2022-11-05T15:16:30.157Z,11.82
2022-11-05T15:19:42.504Z,11.82
2022-11-05T15:23:05.825Z,11.81
2022-11-05T15:26:29.083Z,11.79
2022-11-05T15:29:45.229Z,11.77
2022-11-05T15:32:47.968Z,11.74
2022-11-05T15:36:30.859Z,11.74
2022-11-05T15:39:41.308Z,11.71
2022-11-05T15:43:24.173Z,11.67
2022-11-05T15:46:28.837Z,11.64
2022-11-05T15:49:44.823Z,11.64
2022-11-05T15:53:14.550Z,11.64
2022-11-05T15:56:46.831Z,11.59
2022-11-05T15:59:55.882Z,11.58
2022-11-05T16:03:18.798Z,11.58
2022-11-05T16:06:45.809Z,11.56
2022-11-05T16:10:00.003Z,11.54
2022-11-05T16:13:40.180Z,11.47
2022-11-05T16:16:50.881Z,11.51
2022-11-05T16:20:41.246Z,11.47
2022-11-05T16:24:03.555Z,11.49
2022-11-05T16:27:25.992Z,11.49
2022-11-05T16:30:32.454Z,11.48
2022-11-05T16:33:52.093Z,11.50
2022-11-05T16:37:03.439Z,11.43
2022-11-05T16:40:25.231Z,11.37
2022-11-05T16:43:34.409Z,11.32
2022-11-05T16:46:44.923Z,11.28
2022-11-05T16:49:54.505Z,11.24
2022-11-05T16:53:11.256Z,11.19
2022-11-05T16:56:25.197Z,11.14
2022-11-05T16:59:41.259Z,11.09
2022-11-05T17:02:58.309Z,11.04
2022-11-05T17:06:07.570Z,11.02
2022-11-05T17:09:23.830Z,10.97
2022-11-05T17:12:39.992Z,10.93
2022-11-05T17:15:45.081Z,10.87
2022-11-05T17:19:01.007Z,10.80
2022-11-05T17:22:17.075Z,10.76
2022-11-05T17:25:34.241Z,10.75
2022-11-05T17:28:38.649Z,10.70
2022-11-05T17:31:56.153Z,10.63
2022-11-05T17:35:15.141Z,10.54
2022-11-05T17:38:32.704Z,10.54
2022-11-05T17:41:49.157Z,10.45
2022-11-05T17:44:59.898Z,10.49
2022-11-05T17:48:09.098Z,10.45
2022-11-05T17:51:19.374Z,10.45
2022-11-05T17:54:36.210Z,10.45
2022-11-05T17:57:58.141Z,10.42
2022-11-05T18:01:23.079Z,10.40
2022-11-05T18:04:38.846Z,10.36
2022-11-05T18:07:41.687Z,10.35
2022-11-05T18:10:59.839Z,10.32
2022-11-05T18:14:04.581Z,10.29
2022-11-05T18:17:22.203Z,10.35
2022-11-05T18:20:32.177Z,10.32
2022-11-05T18:23:54.253Z,10.32
2022-11-05T18:27:13.696Z,10.36
2022-11-05T18:30:30.268Z,10.37
2022-11-05T18:33:40.217Z,10.36
2022-11-05T18:36:55.102Z,10.37
2022-11-05T18:40:06.228Z,10.36
2022-11-05T18:43:16.416Z,10.37
2022-11-05T18:50:04.900Z,10.34
2022-11-05T18:53:15.234Z,10.36
2022-11-05T18:56:31.192Z,10.34
2022-11-05T18:59:40.820Z,10.32
2022-11-05T19:02:51.529Z,10.33
2022-11-05T19:06:02.006Z,10.30
2022-11-05T19:09:13.296Z,10.29
2022-11-05T19:12:29.113Z,10.29
2022-11-05T19:15:49.162Z,10.28
2022-11-05T19:18:59.086Z,10.25
2022-11-05T19:22:15.249Z,10.24
2022-11-05T19:25:24.444Z,10.18
2022-11-05T19:28:40.224Z,10.18
2022-11-05T19:31:51.149Z,10.18
2022-11-05T19:35:00.357Z,10.21
2022-11-05T19:38:10.570Z,10.16
2022-11-05T19:41:20.346Z,10.18
2022-11-05T19:44:37.243Z,10.22
2022-11-05T19:47:45.820Z,10.18
2022-11-05T19:50:55.547Z,10.16
2022-11-05T19:54:12.136Z,10.17
2022-11-05T19:57:27.853Z,10.18
2022-11-05T20:00:44.177Z,10.16
2022-11-05T20:04:02.318Z,10.18
2022-11-05T20:07:05.883Z,10.17
2022-11-05T20:10:24.186Z,10.17
2022-11-05T20:13:30.266Z,10.17
2022-11-05T20:16:46.240Z,10.17
2022-11-05T20:19:57.140Z,10.15
2022-11-05T20:23:15.924Z,10.17
2022-11-05T20:26:39.239Z,10.19
2022-11-05T20:29:54.882Z,10.18
2022-11-05T20:32:58.450Z,10.21
2022-11-05T20:36:18.843Z,10.12
2022-11-05T20:39:35.090Z,10.19
2022-11-05T20:42:44.160Z,10.20
2022-11-05T20:45:53.231Z,10.20
2022-11-05T20:49:04.810Z,10.22
2022-11-05T20:52:14.330Z,10.24
2022-11-05T20:55:23.733Z,10.21
2022-11-05T20:58:33.536Z,10.23
2022-11-05T21:01:50.273Z,10.23
2022-11-05T21:05:06.235Z,10.25
2022-11-05T21:08:22.420Z,10.23
2022-11-05T21:11:38.070Z,10.23
2022-11-05T21:14:47.641Z,10.23
2022-11-05T21:17:57.052Z,10.28
2022-11-05T21:21:19.293Z,10.25
2022-11-05T21:24:41.102Z,10.26
2022-11-05T21:27:49.948Z,10.27
2022-11-05T21:31:10.877Z,10.27
2022-11-05T21:34:20.145Z,10.29
2022-11-05T21:37:35.902Z,10.28
2022-11-05T21:40:46.217Z,10.28
2022-11-05T21:44:01.831Z,10.26
2022-11-05T21:47:04.533Z,10.22
2022-11-05T21:50:22.042Z,10.25
2022-11-05T21:53:30.845Z,10.25
2022-11-05T21:56:39.894Z,10.23
2022-11-05T21:59:55.170Z,10.23
2022-11-05T22:03:03.815Z,10.22
2022-11-05T22:06:18.850Z,10.23
2022-11-05T22:09:20.962Z,10.24
2022-11-05T22:12:37.860Z,10.26
2022-11-05T22:15:39.791Z,10.28
2022-11-05T22:18:54.821Z,10.27
2022-11-05T22:22:16.816Z,10.27
2022-11-05T22:25:31.818Z,10.25
2022-11-05T22:28:46.808Z,10.26
2022-11-05T22:31:48.844Z,10.22
2022-11-05T22:35:03.824Z,10.21
2022-11-05T22:38:12.296Z,10.19
2022-11-05T22:41:28.846Z,10.17
2022-11-05T22:44:36.853Z,10.15
2022-11-05T22:47:45.369Z,10.14
2022-11-05T22:50:53.841Z,10.14
2022-11-05T22:54:03.285Z,10.16
2022-11-05T22:57:17.833Z,10.15
2022-11-05T23:00:25.810Z,10.11
2022-11-05T23:03:34.877Z,10.12
2022-11-05T23:06:43.831Z,10.10
2022-11-05T23:09:52.344Z,10.12
2022-11-05T23:13:00.854Z,10.11
2022-11-05T23:16:09.377Z,10.06
2022-11-05T23:19:17.816Z,10.11
2022-11-05T23:22:39.785Z,10.11
2022-11-05T23:25:48.815Z,10.12
2022-11-05T23:28:57.674Z,10.13
2022-11-05T23:32:05.835Z,10.15
2022-11-05T23:35:21.823Z,10.11
2022-11-05T23:38:36.838Z,10.15
2022-11-05T23:41:45.312Z,10.16
2022-11-05T23:44:53.833Z,10.18
2022-11-05T23:48:08.724Z,10.18
2022-11-05T23:51:17.839Z,10.18
2022-11-05T23:54:32.798Z,10.16
2022-11-05T23:57:40.818Z,10.16
